Time;durP1;ratioP1;P1;durP2;ratioP2;P2;SDS_P1;SDS_P2;PMS_P1;PMS_P2;Temp;Humidity;BMP_temperature;BMP_pressure;BME280_temperature;BME280_humidity;BME280_pressure;Samples;Min_cycle;Max_cycle;Signal;HPM_P1;HPM_P2
2022/02/15 00:01:13;;;;;;;2.30;1.27;;;7.90;66.90;;;;;;5107339;28;20092;-78
2022/02/15 00:03:39;;;;;;;3.30;1.58;;;7.90;66.90;;;;;;5107610;28;20547;-77
2022/02/15 00:06:05;;;;;;;5.75;2.05;;;7.90;66.90;;;;;;5107375;28;20035;-79
2022/02/15 00:08:31;;;;;;;5.30;1.70;;;7.80;66.80;;;;;;5089159;28;20393;-79
2022/02/15 00:10:57;;;;;;;5.70;1.83;;;7.80;66.80;;;;;;5107998;28;20035;-80
2022/02/15 00:13:23;;;;;;;3.50;1.52;;;7.80;66.80;;;;;;5089440;28;20043;-79
2022/02/15 00:15:49;;;;;;;2.80;1.52;;;7.80;66.80;;;;;;5109714;28;20039;-79
2022/02/15 00:18:15;;;;;;;3.28;1.80;;;7.80;66.90;;;;;;5109809;28;20518;-80
2022/02/15 00:20:44;;;;;;;3.90;1.67;;;7.70;66.70;;;;;;5089948;28;20070;-79
2022/02/15 00:23:10;;;;;;;3.95;1.80;;;7.70;67.30;;;;;;5110142;28;20020;-80
2022/02/15 00:25:36;;;;;;;3.55;1.45;;;7.70;66.80;;;;;;5112625;28;20360;-79
2022/02/15 00:28:03;;;;;;;2.97;1.33;;;7.70;66.80;;;;;;5093982;28;20034;-79
2022/02/15 00:30:29;;;;;;;3.17;2.17;;;7.70;66.80;;;;;;5111987;28;20028;-78
2022/02/15 00:32:55;;;;;;;5.32;1.67;;;7.60;66.60;;;;;;5093035;28;20150;-78
2022/02/15 00:35:21;;;;;;;3.28;1.63;;;7.60;66.70;;;;;;5093438;28;20451;-78
2022/02/15 00:37:47;;;;;;;2.92;1.63;;;7.60;66.70;;;;;;5111227;28;20028;-78
2022/02/15 00:40:14;;;;;;;4.90;1.42;;;7.50;66.40;;;;;;5090735;28;20081;-78
2022/02/15 00:42:41;;;;;;;4.70;1.83;;;7.50;67.10;;;;;;5089821;28;20028;-77
2022/02/15 00:45:08;;;;;;;3.75;1.35;;;7.50;66.60;;;;;;5108672;28;20028;-78
2022/02/15 00:47:34;;;;;;;2.75;1.30;;;7.50;66.60;;;;;;5093073;28;20052;-80
2022/02/15 00:50:01;;;;;;;7.60;1.73;;;7.40;66.50;;;;;;5111174;28;20027;-79
2022/02/15 00:52:27;;;;;;;5.00;1.70;;;7.40;66.50;;;;;;5093094;28;20027;-79
2022/02/15 00:54:55;;;;;;;4.20;1.90;;;7.40;66.50;;;;;;5114364;28;20038;-77
2022/02/15 00:57:22;;;;;;;4.00;1.45;;;7.30;66.40;;;;;;5119583;27;20042;-77
2022/02/15 00:59:50;;;;;;;3.65;1.88;;;7.30;66.40;;;;;;5102860;28;20062;-77
2022/02/15 01:02:16;;;;;;;5.18;2.03;;;7.30;66.40;;;;;;5100928;28;20127;-78
2022/02/15 01:04:43;;;;;;;4.13;1.42;;;7.30;66.50;;;;;;5119095;28;20024;-78
2022/02/15 01:07:09;;;;;;;4.18;1.60;;;7.30;66.50;;;;;;5100905;28;20020;-78
2022/02/15 01:09:36;;;;;;;3.92;1.35;;;7.30;66.50;;;;;;5096151;28;20023;-78
2022/02/15 01:12:02;;;;;;;4.03;1.30;;;7.30;66.50;;;;;;5117371;28;20039;-79
2022/02/15 01:14:28;;;;;;;4.40;1.50;;;7.20;66.30;;;;;;5111770;28;20044;-79
2022/02/15 01:16:54;;;;;;;3.78;1.73;;;7.20;66.30;;;;;;5110863;28;20405;-78
2022/02/15 01:19:20;;;;;;;4.30;1.42;;;7.20;66.40;;;;;;5110778;28;20386;-79
2022/02/15 01:21:47;;;;;;;5.28;1.55;;;7.20;66.40;;;;;;5092497;28;20031;-79
2022/02/15 01:24:13;;;;;;;5.05;1.50;;;7.10;66.20;;;;;;5092396;28;20047;-78
2022/02/15 01:26:39;;;;;;;2.13;1.38;;;7.10;66.20;;;;;;5110784;28;20024;-78
2022/02/15 01:29:05;;;;;;;3.40;1.63;;;7.00;66.10;;;;;;5110299;28;20058;-78
2022/02/15 01:31:32;;;;;;;4.97;1.58;;;7.00;66.10;;;;;;5091747;28;20032;-78
2022/02/15 01:33:58;;;;;;;2.03;1.50;;;7.00;66.20;;;;;;5074431;28;20402;-79
2022/02/15 01:36:24;;;;;;;5.72;2.00;;;7.00;66.70;;;;;;5110097;28;20042;-78
2022/02/15 01:38:50;;;;;;;5.93;1.80;;;6.90;66.00;;;;;;5091421;28;20032;-79
2022/02/15 01:41:17;;;;;;;4.30;1.75;;;6.90;66.10;;;;;;5109728;28;20392;-78
2022/02/15 01:43:46;;;;;;;2.15;1.67;;;6.90;66.10;;;;;;5110007;28;20023;-78
2022/02/15 01:46:13;;;;;;;4.55;1.80;;;6.80;66.00;;;;;;5091416;28;20127;-78
2022/02/15 01:48:41;;;;;;;4.55;2.00;;;6.80;66.00;;;;;;5109454;28;20031;-78
2022/02/15 01:51:08;;;;;;;5.47;2.00;;;6.80;66.00;;;;;;5074288;28;20508;-78
2022/02/15 01:53:34;;;;;;;4.70;1.60;;;6.80;66.00;;;;;;5091899;28;20501;-79
2022/02/15 01:56:01;;;;;;;3.20;1.50;;;6.80;66.00;;;;;;5109455;28;20039;-78
2022/02/15 01:58:32;;;;;;;2.50;1.52;;;6.80;66.00;;;;;;5091463;28;20076;-79
2022/02/15 02:01:05;;;;;;;5.97;1.83;;;6.80;66.00;;;;;;5075058;28;20035;-80
2022/02/15 02:03:39;;;;;;;6.25;2.17;;;6.80;66.00;;;;;;5090995;28;20529;-79
2022/02/15 02:06:05;;;;;;;3.13;1.40;;;6.80;66.00;;;;;;5091360;28;20440;-80
2022/02/15 02:08:34;;;;;;;4.63;1.40;;;6.80;66.10;;;;;;5090856;28;20027;-79
2022/02/15 02:11:02;;;;;;;3.58;1.77;;;6.80;66.00;;;;;;5091773;28;20022;-79
2022/02/15 02:13:43;;;;;;;2.30;1.45;;;6.90;66.20;;;;;;5076533;28;20478;-79
2022/02/15 02:16:10;;;;;;;2.35;1.27;;;6.80;66.00;;;;;;5091539;28;20046;-79
2022/02/15 02:19:15;;;;;;;5.85;2.30;;;6.90;66.20;;;;;;5093094;28;20047;-79
2022/02/15 02:21:41;;;;;;;3.97;1.75;;;6.90;66.20;;;;;;5091711;28;20300;-79
2022/02/15 02:24:13;;;;;;;4.63;1.65;;;6.90;66.20;;;;;;5091609;28;20027;-79
2022/02/15 02:26:44;;;;;;;4.70;1.38;;;6.90;66.20;;;;;;5091805;28;20030;-78
2022/02/15 02:29:10;;;;;;;3.35;1.80;;;6.90;66.20;;;;;;5090470;28;20387;-78
2022/02/15 02:31:44;;;;;;;4.43;1.50;;;6.90;66.20;;;;;;5074420;28;20042;-79
2022/02/15 02:34:12;;;;;;;7.27;1.83;;;6.90;66.20;;;;;;5090392;28;20023;-79
2022/02/15 02:36:47;;;;;;;2.70;2.05;;;6.90;66.20;;;;;;5090941;28;20039;-78
2022/02/15 02:39:32;;;;;;;2.72;1.50;;;6.90;66.20;;;;;;5090586;28;20028;-79
2022/02/15 02:41:58;;;;;;;3.75;1.48;;;6.90;66.20;;;;;;5090440;28;20069;-79
2022/02/15 02:44:24;;;;;;;5.25;1.58;;;6.90;66.10;;;;;;5090338;28;20032;-78
2022/02/15 02:46:50;;;;;;;4.25;1.50;;;7.00;66.30;;;;;;5080358;28;20035;-79
2022/02/15 02:49:18;;;;;;;5.63;1.48;;;7.00;66.20;;;;;;5093665;28;20503;-79
2022/02/15 02:51:44;;;;;;;2.63;1.33;;;7.00;66.20;;;;;;5093825;28;20019;-79
2022/02/15 02:54:10;;;;;;;2.67;1.40;;;7.00;66.20;;;;;;5114482;28;20042;-78
2022/02/15 02:56:46;;;;;;;4.70;1.77;;;7.00;66.20;;;;;;5081139;28;20084;-79
2022/02/15 02:59:12;;;;;;;3.67;1.27;;;7.00;66.10;;;;;;5114105;28;20138;-78
2022/02/15 03:01:38;;;;;;;3.72;1.60;;;7.00;66.10;;;;;;5093861;28;20024;-79
2022/02/15 03:04:04;;;;;;;7.60;1.92;;;7.00;66.10;;;;;;5094261;28;20028;-78
2022/02/15 03:06:30;;;;;;;4.45;1.27;;;7.10;66.20;;;;;;5076645;28;20024;-78
2022/02/15 03:08:58;;;;;;;3.20;1.23;;;7.10;66.20;;;;;;5093355;28;20050;-79
2022/02/15 03:11:28;;;;;;;2.83;1.23;;;7.10;66.20;;;;;;5094614;28;20374;-79
2022/02/15 03:13:54;;;;;;;4.20;1.30;;;7.10;66.20;;;;;;5109740;28;20532;-78
2022/02/15 03:16:30;;;;;;;3.10;1.38;;;7.10;66.20;;;;;;5110260;28;20032;-78
2022/02/15 03:18:56;;;;;;;2.63;1.20;;;7.10;66.20;;;;;;5110144;28;20387;-79
2022/02/15 03:21:23;;;;;;;2.90;1.55;;;7.10;66.20;;;;;;5110326;28;20624;-79
2022/02/15 03:23:50;;;;;;;3.70;1.27;;;7.10;66.20;;;;;;5110008;28;20028;-79
2022/02/15 03:26:18;;;;;;;4.00;1.33;;;7.10;66.10;;;;;;5077485;28;20026;-79
2022/02/15 03:28:44;;;;;;;3.05;1.33;;;7.20;66.20;;;;;;5090665;28;20019;-78
2022/02/15 03:31:12;;;;;;;3.58;1.20;;;7.20;66.20;;;;;;5092523;28;20024;-79
2022/02/15 03:33:38;;;;;;;3.15;1.48;;;7.20;66.20;;;;;;5092971;28;20024;-78
2022/02/15 03:36:05;;;;;;;4.05;1.45;;;7.20;66.10;;;;;;5110631;28;20032;-79
2022/02/15 03:38:35;;;;;;;3.58;1.00;;;7.30;66.30;;;;;;5093178;28;20019;-79
2022/02/15 03:43:56;;;;;;;4.38;1.45;;;7.30;66.20;;;;;;5093191;28;20062;-78
2022/02/15 03:46:28;;;;;;;2.63;1.17;;;7.30;66.10;;;;;;5092744;28;20390;-78
2022/02/15 03:48:54;;;;;;;4.18;1.50;;;7.30;66.10;;;;;;5092859;28;20028;-78
2022/02/15 03:51:21;;;;;;;4.60;1.38;;;7.40;66.20;;;;;;5092868;28;20080;-79
2022/02/15 03:53:54;;;;;;;4.78;1.25;;;7.40;66.20;;;;;;5092545;28;20450;-78
2022/02/15 03:56:21;;;;;;;4.38;1.20;;;7.40;66.10;;;;;;5092795;28;20072;-78
2022/02/15 03:58:47;;;;;;;4.18;1.27;;;7.40;66.10;;;;;;5109166;28;20028;-78
2022/02/15 04:01:16;;;;;;;1.98;1.00;;;7.50;66.20;;;;;;5092621;28;20032;-77
2022/02/15 04:03:43;;;;;;;3.13;1.27;;;7.40;66.00;;;;;;5093135;28;20179;-78
2022/02/15 04:06:11;;;;;;;3.35;1.23;;;7.50;66.70;;;;;;5075635;28;20039;-78
2022/02/15 04:08:37;;;;;;;3.83;1.35;;;7.50;66.10;;;;;;5092712;28;20668;-78
2022/02/15 04:11:04;;;;;;;2.75;1.70;;;7.50;66.10;;;;;;5092485;28;20536;-78
2022/02/15 04:13:31;;;;;;;4.20;1.63;;;7.50;66.10;;;;;;5092972;28;20028;-78
2022/02/15 04:15:59;;;;;;;4.53;1.50;;;7.50;66.00;;;;;;5092171;28;20083;-79
2022/02/15 04:18:25;;;;;;;5.05;1.15;;;7.50;66.00;;;;;;5092437;28;20039;-78
2022/02/15 04:20:52;;;;;;;5.72;1.30;;;7.50;66.00;;;;;;5092380;28;20475;-78
2022/02/15 04:23:18;;;;;;;4.32;1.50;;;7.60;66.10;;;;;;5110840;28;20405;-78
2022/02/15 04:25:44;;;;;;;5.97;1.50;;;7.60;66.10;;;;;;5092525;28;20085;-79
2022/02/15 04:28:21;;;;;;;3.58;1.17;;;7.60;66.00;;;;;;5092635;28;20032;-78
2022/02/15 04:30:47;;;;;;;5.65;1.30;;;7.60;66.00;;;;;;5092876;28;20058;-78
2022/02/15 04:33:15;;;;;;;6.63;1.00;;;7.60;66.00;;;;;;5075555;28;20063;-78
2022/02/15 04:35:41;;;;;;;4.30;1.60;;;7.60;66.00;;;;;;5092380;28;20044;-77
2022/02/15 04:38:08;;;;;;;3.58;1.10;;;7.70;66.10;;;;;;5075949;28;20023;-77
2022/02/15 04:40:35;;;;;;;4.93;1.63;;;7.70;66.10;;;;;;5092651;28;20032;-79
2022/02/15 04:43:04;;;;;;;2.70;1.23;;;7.70;66.60;;;;;;5092364;28;20027;-78
2022/02/15 04:45:30;;;;;;;10.52;1.92;;;7.70;66.00;;;;;;5075557;28;20031;-78
2022/02/15 04:47:56;;;;;;;3.13;1.02;;;7.70;66.00;;;;;;5088641;28;20538;-80
2022/02/15 04:50:26;;;;;;;3.45;1.13;;;7.70;66.00;;;;;;5088816;28;20024;-79
2022/02/15 04:52:52;;;;;;;2.83;0.90;;;7.70;66.00;;;;;;5088991;28;20101;-79
2022/02/15 04:55:21;;;;;;;5.85;1.17;;;7.70;66.00;;;;;;5088912;28;20440;-79
2022/02/15 04:57:54;;;;;;;5.00;1.00;;;7.80;66.10;;;;;;5074122;28;20028;-80
2022/02/15 05:00:20;;;;;;;8.63;1.90;;;7.80;66.10;;;;;;5090768;28;20039;-79
2022/02/15 05:03:05;;;;;;;5.20;0.95;;;7.80;66.00;;;;;;5089053;28;20058;-79
2022/02/15 05:05:31;;;;;;;3.55;0.70;;;7.80;66.00;;;;;;5088590;28;20024;-78
2022/02/15 05:07:58;;;;;;;3.80;1.33;;;7.90;66.20;;;;;;5089229;28;20034;-79
2022/02/15 05:10:25;;;;;;;4.43;0.80;;;7.90;66.10;;;;;;5090292;28;20507;-79
2022/02/15 05:12:51;;;;;;;5.15;0.98;;;7.90;66.10;;;;;;5093672;28;20040;-78
2022/02/15 05:15:30;;;;;;;6.15;1.52;;;7.90;66.10;;;;;;5092009;28;20036;-78
2022/02/15 05:18:09;;;;;;;5.47;1.10;;;7.90;66.00;;;;;;5092494;28;20068;-78
2022/02/15 05:20:38;;;;;;;5.72;1.95;;;7.90;66.00;;;;;;5092288;28;20055;-78
2022/02/15 05:23:05;;;;;;;3.75;1.10;;;7.90;66.00;;;;;;5075202;28;20495;-79
2022/02/15 05:25:37;;;;;;;7.00;1.02;;;8.00;66.20;;;;;;5092108;28;20028;-79
2022/02/15 05:28:04;;;;;;;5.20;1.30;;;8.00;66.20;;;;;;5092195;28;20129;-79
2022/02/15 05:30:30;;;;;;;5.22;1.02;;;8.00;66.20;;;;;;5077741;28;20028;-79
2022/02/15 05:33:09;;;;;;;5.15;1.30;;;8.00;66.20;;;;;;5094790;28;20576;-78
2022/02/15 05:35:43;;;;;;;6.50;1.55;;;8.00;66.20;;;;;;5093269;28;20036;-79
2022/02/15 05:38:10;;;;;;;4.97;1.17;;;8.00;66.20;;;;;;5076630;28;20024;-79
2022/02/15 05:40:40;;;;;;;3.80;1.17;;;8.10;66.30;;;;;;5092730;28;20040;-79
2022/02/15 05:43:13;;;;;;;4.18;1.00;;;8.10;66.30;;;;;;5092701;28;20028;-78
2022/02/15 05:45:40;;;;;;;2.58;0.73;;;8.10;66.20;;;;;;5056342;28;20036;-79
2022/02/15 05:48:23;;;;;;;3.55;1.30;;;8.10;66.20;;;;;;5055369;28;20072;-79
2022/02/15 05:50:53;;;;;;;6.00;1.15;;;8.20;66.30;;;;;;5065028;28;20373;-79
2022/02/15 05:53:38;;;;;;;5.18;1.40;;;8.20;66.30;;;;;;5049642;28;20028;-80
2022/02/15 05:56:06;;;;;;;3.60;1.17;;;8.20;66.60;;;;;;5047860;28;20033;-80
2022/02/15 05:58:46;;;;;;;2.97;0.70;;;8.20;66.20;;;;;;5059104;28;20091;-79
2022/02/15 06:01:35;;;;;;;4.88;0.95;;;8.20;66.20;;;;;;5067435;28;20064;-79
2022/02/15 06:04:09;;;;;;;3.28;0.90;;;8.20;66.20;;;;;;5067680;28;20035;-80
2022/02/15 06:06:40;;;;;;;4.18;0.98;;;8.30;66.40;;;;;;5067833;28;20039;-79
2022/02/15 06:09:09;;;;;;;5.93;1.23;;;8.30;66.40;;;;;;5066435;28;20028;-79
2022/02/15 06:11:40;;;;;;;3.65;1.35;;;8.30;66.40;;;;;;5067993;28;20071;-79
2022/02/15 06:14:07;;;;;;;4.43;1.35;;;8.30;66.30;;;;;;5049744;28;20065;-79
2022/02/15 06:16:33;;;;;;;5.57;1.58;;;8.30;66.30;;;;;;5051009;28;20376;-79
2022/02/15 06:19:08;;;;;;;5.45;2.00;;;8.30;66.30;;;;;;5067216;28;20059;-79
2022/02/15 06:21:36;;;;;;;4.00;1.80;;;8.40;66.50;;;;;;5054397;28;20033;-79
2022/02/15 06:24:10;;;;;;;2.92;0.95;;;8.40;66.50;;;;;;5032098;28;20432;-80
2022/02/15 06:26:36;;;;;;;4.13;1.13;;;8.40;66.50;;;;;;5047785;28;20044;-80
2022/02/15 06:29:23;;;;;;;4.55;1.33;;;8.40;66.50;;;;;;5049338;28;20139;-80
2022/02/15 06:31:54;;;;;;;3.97;1.13;;;8.40;66.40;;;;;;5067337;28;20040;-81
2022/02/15 06:34:22;;;;;;;3.30;1.30;;;8.40;66.40;;;;;;5067138;28;20024;-80
2022/02/15 06:36:51;;;;;;;5.65;1.15;;;8.40;66.40;;;;;;5064404;28;20124;-80
2022/02/15 06:39:20;;;;;;;4.00;0.90;;;8.40;66.50;;;;;;5074879;28;20024;-80
2022/02/15 06:41:50;;;;;;;5.43;1.33;;;8.50;66.60;;;;;;5067660;28;20036;-80
2022/02/15 06:44:18;;;;;;;6.43;2.10;;;8.50;66.60;;;;;;5050853;28;20032;-80
2022/02/15 06:46:47;;;;;;;4.10;1.10;;;8.50;66.60;;;;;;5076055;28;20048;-78
2022/02/15 06:49:22;;;;;;;4.22;1.00;;;8.60;66.70;;;;;;5087092;28;20165;-79
2022/02/15 06:52:08;;;;;;;4.47;1.38;;;8.60;66.70;;;;;;5088288;28;20020;-79
2022/02/15 06:54:34;;;;;;;2.83;0.90;;;8.60;66.60;;;;;;5084642;28;20035;-77
2022/02/15 06:57:04;;;;;;;4.95;1.27;;;8.60;66.60;;;;;;5067298;28;20032;-79
2022/02/15 06:59:31;;;;;;;5.50;1.00;;;8.60;66.60;;;;;;5076264;28;20115;-77
2022/02/15 07:01:58;;;;;;;4.63;1.33;;;8.70;66.70;;;;;;5066156;28;20103;-79
2022/02/15 07:04:28;;;;;;;7.20;1.52;;;8.70;66.70;;;;;;5066652;28;20036;-81
2022/02/15 07:06:56;;;;;;;3.33;1.25;;;8.70;66.70;;;;;;5067404;28;20525;-79
2022/02/15 07:09:22;;;;;;;5.20;1.20;;;8.70;66.70;;;;;;5082156;28;20028;-80
2022/02/15 07:12:10;;;;;;;4.38;1.23;;;8.70;66.70;;;;;;5087610;28;20032;-77
2022/02/15 07:14:50;;;;;;;4.97;0.98;;;8.80;66.80;;;;;;5060685;28;20032;-80
2022/02/15 07:17:21;;;;;;;7.78;1.55;;;8.80;66.80;;;;;;5071143;28;20038;-78
2022/02/15 07:19:47;;;;;;;8.50;1.60;;;8.80;66.80;;;;;;5085900;28;20058;-81
2022/02/15 07:22:33;;;;;;;5.47;1.25;;;8.80;66.80;;;;;;5087838;28;20040;-77
2022/02/15 07:25:25;;;;;;;3.92;1.35;;;8.80;66.80;;;;;;5081828;28;20054;-77
2022/02/15 07:28:10;;;;;;;3.83;1.00;;;8.90;66.90;;;;;;5076452;28;20069;-78
2022/02/15 07:30:36;;;;;;;3.58;1.40;;;8.90;66.90;;;;;;5066580;28;20027;-77
2022/02/15 07:33:07;;;;;;;6.22;1.58;;;8.90;66.90;;;;;;5065666;28;20478;-78
2022/02/15 07:35:36;;;;;;;6.25;1.20;;;8.90;66.90;;;;;;5076414;28;20091;-77
2022/02/15 07:38:04;;;;;;;5.65;1.48;;;8.90;66.90;;;;;;5085753;28;20498;-81
2022/02/15 07:40:30;;;;;;;4.65;1.00;;;8.90;66.90;;;;;;5086038;28;20032;-78
2022/02/15 07:42:56;;;;;;;6.28;1.25;;;9.00;67.10;;;;;;5087291;28;20437;-77
2022/02/15 07:45:40;;;;;;;5.90;0.98;;;9.00;67.00;;;;;;5086335;28;20031;-78
2022/02/15 07:48:08;;;;;;;5.03;1.20;;;9.00;67.00;;;;;;5107525;28;20058;-81
2022/02/15 07:50:36;;;;;;;6.45;1.67;;;9.10;67.20;;;;;;5089742;28;20028;-81
2022/02/15 07:53:02;;;;;;;4.93;1.10;;;9.10;67.10;;;;;;5107170;28;20660;-81
2022/02/15 07:55:28;;;;;;;6.32;1.42;;;9.10;67.10;;;;;;5107383;28;20071;-82
2022/02/15 07:57:54;;;;;;;6.43;1.83;;;9.10;67.10;;;;;;5089223;28;20023;-80
2022/02/15 08:00:21;;;;;;;6.25;1.30;;;9.10;67.10;;;;;;5107637;28;20105;-78
2022/02/15 08:02:52;;;;;;;4.35;1.67;;;9.10;67.10;;;;;;5107864;28;20084;-79
2022/02/15 08:05:21;;;;;;;6.72;1.50;;;9.20;67.30;;;;;;5089285;28;20082;-77
2022/02/15 08:07:51;;;;;;;5.65;1.30;;;9.20;67.30;;;;;;5088956;28;20031;-77
2022/02/15 08:10:18;;;;;;;7.22;1.60;;;9.20;67.30;;;;;;5089635;28;20028;-77
2022/02/15 08:12:47;;;;;;;8.25;2.50;;;9.20;67.30;;;;;;5107834;28;20114;-77
2022/02/15 08:15:16;;;;;;;8.73;2.17;;;9.20;67.30;;;;;;5091013;28;20043;-76
2022/02/15 08:17:42;;;;;;;3.70;1.10;;;9.30;67.50;;;;;;5074679;28;20028;-77
2022/02/15 08:20:09;;;;;;;4.35;1.27;;;9.30;67.50;;;;;;5109360;28;20049;-78
2022/02/15 08:22:35;;;;;;;7.35;1.83;;;9.30;67.50;;;;;;5090922;28;20087;-78
2022/02/15 08:25:01;;;;;;;7.40;1.73;;;9.30;67.50;;;;;;5108800;28;20024;-77
2022/02/15 08:27:27;;;;;;;6.10;1.83;;;9.30;67.40;;;;;;5109041;28;20462;-85
2022/02/15 08:29:53;;;;;;;4.25;1.10;;;9.40;67.60;;;;;;5089013;28;20073;-82
2022/02/15 08:32:19;;;;;;;5.43;1.50;;;9.40;67.50;;;;;;5072429;28;20032;-84
2022/02/15 08:34:45;;;;;;;4.07;1.50;;;9.40;67.50;;;;;;5094786;28;20062;-84
2022/02/15 08:37:11;;;;;;;7.47;2.70;;;9.50;67.60;;;;;;5087042;28;20032;-83
2022/02/15 08:39:38;;;;;;;4.50;1.27;;;9.50;67.60;;;;;;5107548;28;20024;-81
2022/02/15 08:42:05;;;;;;;4.90;1.35;;;9.50;67.50;;;;;;5089401;28;20020;-81
2022/02/15 08:44:34;;;;;;;4.63;2.35;;;9.60;67.70;;;;;;5091147;28;20024;-82
2022/02/15 08:47:08;;;;;;;6.78;1.98;;;9.60;67.70;;;;;;5111073;28;20055;-82
2022/02/15 08:49:35;;;;;;;3.58;1.35;;;9.60;68.20;;;;;;5092526;28;20076;-82
2022/02/15 08:52:02;;;;;;;4.38;2.08;;;9.60;67.70;;;;;;5111422;28;20067;-80
2022/02/15 08:54:28;;;;;;;5.70;1.48;;;9.70;67.80;;;;;;5110690;28;20081;-80
2022/02/15 08:56:54;;;;;;;4.60;1.20;;;9.70;67.80;;;;;;5111177;28;20486;-81
2022/02/15 08:59:20;;;;;;;4.90;1.38;;;9.70;67.90;;;;;;5091997;28;20024;-81
2022/02/15 09:01:48;;;;;;;3.55;1.13;;;9.70;67.90;;;;;;5092347;28;20032;-80
2022/02/15 09:04:15;;;;;;;7.45;1.33;;;9.70;67.90;;;;;;5111195;28;20057;-80
2022/02/15 09:06:41;;;;;;;4.28;1.05;;;9.80;68.10;;;;;;5093006;28;20436;-83
2022/02/15 09:09:12;;;;;;;3.42;1.20;;;9.80;68.10;;;;;;5075391;28;20390;-80
2022/02/15 09:11:39;;;;;;;4.32;1.23;;;9.80;68.10;;;;;;5093002;28;20027;-83
2022/02/15 09:14:05;;;;;;;4.45;1.25;;;9.80;68.00;;;;;;5110776;28;20024;-87
2022/02/15 09:16:32;;;;;;;4.60;1.27;;;9.80;68.00;;;;;;5090010;28;20031;-87
2022/02/15 09:18:59;;;;;;;5.20;1.75;;;9.90;68.10;;;;;;5084874;28;20080;-90
2022/02/15 09:21:25;;;;;;;4.50;1.40;;;9.90;68.10;;;;;;5112368;28;20140;-86
2022/02/15 09:23:51;;;;;;;5.30;1.00;;;9.90;68.10;;;;;;5101604;28;20024;-84
2022/02/15 09:26:17;;;;;;;3.17;1.00;;;9.90;68.10;;;;;;5096570;28;20509;-84
2022/02/15 09:28:43;;;;;;;3.03;0.98;;;9.90;68.10;;;;;;5090722;28;20482;-83
2022/02/15 09:31:09;;;;;;;2.70;1.02;;;9.90;68.00;;;;;;5098218;28;20050;-83
2022/02/15 09:33:35;;;;;;;4.55;1.40;;;10.00;68.20;;;;;;5110646;28;20072;-77
2022/02/15 09:36:01;;;;;;;3.80;1.58;;;10.00;68.20;;;;;;5091847;28;20047;-81
2022/02/15 09:38:28;;;;;;;3.75;1.00;;;10.00;68.10;;;;;;5091805;28;20080;-81
2022/02/15 09:40:54;;;;;;;2.60;1.85;;;10.00;68.10;;;;;;5110284;28;20031;-83
2022/02/15 09:43:20;;;;;;;3.45;1.20;;;10.10;68.30;;;;;;5110729;28;20039;-80
2022/02/15 09:45:47;;;;;;;4.00;1.10;;;10.00;68.10;;;;;;5091659;28;20051;-82
2022/02/15 09:48:16;;;;;;;4.40;1.08;;;10.10;68.20;;;;;;5104084;28;20390;-77
2022/02/15 09:50:44;;;;;;;3.92;1.30;;;10.10;68.20;;;;;;5104918;28;20136;-78
2022/02/15 09:53:10;;;;;;;4.22;1.05;;;10.20;68.40;;;;;;5091830;28;20034;-83
2022/02/15 09:55:36;;;;;;;3.25;0.88;;;10.20;68.40;;;;;;5102318;28;20073;-82
2022/02/15 09:58:03;;;;;;;3.88;1.10;;;10.20;68.30;;;;;;5090822;28;20031;-82
2022/02/15 10:00:29;;;;;;;3.33;1.45;;;10.20;68.30;;;;;;5107123;28;20471;-83
2022/02/15 10:02:58;;;;;;;1.50;0.90;;;10.20;68.20;;;;;;5106710;28;20486;-92
2022/02/15 10:05:31;;;;;;;6.05;1.48;;;10.30;68.40;;;;;;5090293;28;20028;-78
2022/02/15 10:07:57;;;;;;;2.90;1.00;;;10.30;68.40;;;;;;5109147;28;20079;-82
2022/02/15 10:10:31;;;;;;;3.78;1.10;;;10.30;68.40;;;;;;5109933;28;20444;-81
2022/02/15 10:13:08;;;;;;;4.57;1.40;;;10.30;68.40;;;;;;5109736;28;20051;-81
2022/02/15 10:15:38;;;;;;;3.00;0.90;;;10.30;68.40;;;;;;5109260;28;20040;-81
2022/02/15 10:18:12;;;;;;;2.95;0.95;;;10.30;68.40;;;;;;5108987;28;20068;-81
2022/02/15 10:20:42;;;;;;;2.00;0.90;;;10.40;68.60;;;;;;5091175;28;20031;-80
2022/02/15 10:23:22;;;;;;;4.22;1.40;;;10.30;68.40;;;;;;5090245;28;20086;-81
2022/02/15 10:25:50;;;;;;;4.47;1.90;;;10.40;68.60;;;;;;5072460;28;20032;-84
2022/02/15 10:28:22;;;;;;;3.97;1.25;;;10.30;68.50;;;;;;5089546;28;20020;-80
2022/02/15 10:30:53;;;;;;;7.10;1.30;;;10.40;68.70;;;;;;5089614;28;20023;-80
2022/02/15 10:33:26;;;;;;;1.83;0.80;;;10.40;68.70;;;;;;5108506;28;20152;-80
2022/02/15 10:36:01;;;;;;;3.38;1.15;;;10.40;68.70;;;;;;5107550;28;20039;-80
2022/02/15 10:38:33;;;;;;;3.83;1.20;;;10.50;68.80;;;;;;5090604;28;20478;-80
2022/02/15 10:41:03;;;;;;;5.22;1.25;;;10.50;68.70;;;;;;5091556;28;20372;-87
2022/02/15 10:43:43;;;;;;;4.72;1.10;;;10.50;68.60;;;;;;5091480;28;20047;-81
2022/02/15 10:46:17;;;;;;;3.95;1.08;;;10.50;68.60;;;;;;5091208;28;20436;-81
2022/02/15 10:48:44;;;;;;;1.95;1.55;;;10.60;68.70;;;;;;5069908;28;20047;-77
2022/02/15 10:51:12;;;;;;;5.90;1.00;;;10.60;68.70;;;;;;5088613;28;20741;-82
2022/02/15 10:53:38;;;;;;;3.13;0.93;;;10.70;69.20;;;;;;5086779;28;20032;-81
2022/02/15 10:56:05;;;;;;;3.63;1.27;;;10.80;69.70;;;;;;5087645;28;20305;-81
2022/02/15 10:58:32;;;;;;;3.42;1.30;;;10.90;70.00;;;;;;5096171;28;20053;-82
2022/02/15 11:01:04;;;;;;;3.60;1.10;;;11.10;70.30;;;;;;5105862;28;20040;-82
2022/02/15 11:03:36;;;;;;;3.58;1.35;;;11.20;70.40;;;;;;5113585;28;20082;-81
2022/02/15 11:06:03;;;;;;;3.58;0.88;;;11.20;70.40;;;;;;5112509;28;20042;-82
2022/02/15 11:08:31;;;;;;;3.92;1.50;;;11.20;70.40;;;;;;5112230;28;20024;-84
2022/02/15 11:11:23;;;;;;;2.90;0.98;;;11.20;70.40;;;;;;5110306;28;20092;-82
2022/02/15 11:13:50;;;;;;;5.18;1.23;;;11.30;70.60;;;;;;5092960;28;20150;-82
2022/02/15 11:16:21;;;;;;;4.60;1.25;;;11.30;70.50;;;;;;5092823;28;20424;-82
2022/02/15 11:18:48;;;;;;;2.33;1.27;;;11.30;70.60;;;;;;5110231;28;20038;-84
2022/02/15 11:21:21;;;;;;;2.40;1.10;;;11.30;70.60;;;;;;5092110;28;20592;-82
2022/02/15 11:23:58;;;;;;;3.40;0.90;;;11.30;70.40;;;;;;5109436;28;20480;-83
2022/02/15 11:26:40;;;;;;;3.30;0.70;;;11.30;70.60;;;;;;5108822;28;20114;-82
2022/02/15 11:29:18;;;;;;;4.00;1.30;;;11.40;70.70;;;;;;5108705;28;20105;-82
2022/02/15 11:31:44;;;;;;;3.53;1.73;;;11.40;70.70;;;;;;5090255;28;20502;-82
2022/02/15 11:34:12;;;;;;;3.10;1.20;;;11.40;70.60;;;;;;5089876;28;20037;-82
2022/02/15 11:36:50;;;;;;;1.65;1.10;;;11.50;70.80;;;;;;5089848;28;20043;-82
2022/02/15 11:39:25;;;;;;;2.30;1.00;;;11.40;70.60;;;;;;5088946;28;20047;-82
2022/02/15 11:41:55;;;;;;;3.05;1.20;;;11.50;70.80;;;;;;5108147;28;20028;-82
2022/02/15 11:44:47;;;;;;;3.63;1.75;;;11.50;70.80;;;;;;5106723;28;20413;-83
2022/02/15 11:47:23;;;;;;;4.88;1.48;;;11.50;70.80;;;;;;5102594;28;20047;-83
2022/02/15 11:49:59;;;;;;;4.10;1.15;;;11.50;70.80;;;;;;5088320;28;20278;-83
2022/02/15 11:52:27;;;;;;;3.13;1.00;;;11.50;70.70;;;;;;5069367;28;20491;-80
2022/02/15 11:55:05;;;;;;;4.03;1.70;;;11.50;70.70;;;;;;5086824;28;20097;-80
2022/02/15 11:57:34;;;;;;;3.90;1.00;;;11.60;70.90;;;;;;5087645;28;20113;-81
2022/02/15 12:00:00;;;;;;;5.38;1.00;;;11.60;70.90;;;;;;5107858;28;20028;-80
2022/02/15 12:02:26;;;;;;;3.60;0.90;;;11.60;70.90;;;;;;5107866;28;20035;-81
2022/02/15 12:04:56;;;;;;;1.92;0.90;;;11.60;70.90;;;;;;5103078;28;20092;-82
2022/02/15 12:07:29;;;;;;;1.60;0.93;;;11.60;70.90;;;;;;5069174;28;20043;-82
2022/02/15 12:09:59;;;;;;;3.25;1.30;;;11.60;70.90;;;;;;5088498;28;20039;-80
2022/02/15 12:12:33;;;;;;;1.80;1.20;;;11.60;70.90;;;;;;5107995;28;20115;-81
2022/02/15 12:15:00;;;;;;;2.50;0.88;;;11.70;71.10;;;;;;5107387;28;20038;-80
2022/02/15 12:17:28;;;;;;;1.98;0.98;;;11.70;71.00;;;;;;5107180;28;20036;-81
2022/02/15 12:19:56;;;;;;;2.53;0.85;;;11.70;71.00;;;;;;5109701;28;20049;-80
2022/02/15 12:22:23;;;;;;;3.28;0.82;;;11.70;70.90;;;;;;5111964;28;20038;-82
2022/02/15 12:25:02;;;;;;;2.22;0.95;;;11.80;71.10;;;;;;5092792;28;20390;-81
2022/02/15 12:27:28;;;;;;;1.45;0.77;;;11.80;71.10;;;;;;5111030;28;20024;-82
2022/02/15 12:29:56;;;;;;;3.08;1.02;;;11.80;71.00;;;;;;5111297;28;20035;-81
2022/02/15 12:32:24;;;;;;;1.23;0.73;;;11.80;71.00;;;;;;5111563;28;20953;-83
2022/02/15 12:34:51;;;;;;;2.20;1.02;;;11.80;71.00;;;;;;5111387;28;20035;-82
2022/02/15 12:37:26;;;;;;;2.83;1.10;;;11.90;71.10;;;;;;5111022;28;20031;-82
2022/02/15 12:40:01;;;;;;;3.40;0.70;;;11.90;71.10;;;;;;5108131;28;20544;-81
2022/02/15 12:42:29;;;;;;;2.33;1.00;;;11.80;71.00;;;;;;5073078;28;20526;-82
2022/02/15 12:45:01;;;;;;;5.93;1.05;;;11.80;71.00;;;;;;5090699;28;20035;-82
2022/02/15 12:47:29;;;;;;;1.43;0.80;;;11.90;71.20;;;;;;5072647;28;20044;-83
2022/02/15 12:49:57;;;;;;;1.67;0.90;;;11.80;71.00;;;;;;5110123;28;20275;-82
2022/02/15 12:52:27;;;;;;;2.38;0.90;;;11.80;71.10;;;;;;5111137;28;20023;-82
2022/02/15 12:54:56;;;;;;;2.33;0.85;;;11.80;71.20;;;;;;5111522;28;20043;-80
2022/02/15 12:57:25;;;;;;;3.97;0.80;;;11.80;71.20;;;;;;5111486;28;20545;-80
2022/02/15 12:59:58;;;;;;;5.35;1.00;;;11.80;71.20;;;;;;5110778;28;20053;-81
2022/02/15 13:02:27;;;;;;;1.88;0.98;;;11.90;71.40;;;;;;5110942;28;20024;-82
2022/02/15 13:04:58;;;;;;;2.88;1.00;;;11.90;71.30;;;;;;5110831;28;20495;-81
2022/02/15 13:07:25;;;;;;;3.28;0.90;;;11.90;71.40;;;;;;5076249;28;20488;-81
2022/02/15 13:09:54;;;;;;;3.42;0.95;;;11.90;71.30;;;;;;5111066;28;20257;-81